Time;durP1;ratioP1;P1;durP2;ratioP2;P2;SDS_P1;SDS_P2;PMS_P1;PMS_P2;Temp;Humidity;BMP_temperature;BMP_pressure;BME280_temperature;BME280_humidity;BME280_pressure;Samples;Min_cycle;Max_cycle;Signal;HPM_P1;HPM_P2
2021/04/25 00:00:47;;;;;;;6.90;4.60;;;8.90;84.20;;;;;;5062835;28;20402;-73
2021/04/25 00:03:14;;;;;;;6.90;4.35;;;8.90;84.30;;;;;;5063086;28;20281;-71
2021/04/25 00:05:40;;;;;;;4.72;3.90;;;8.80;84.60;;;;;;5065019;28;20196;-71
2021/04/25 00:08:07;;;;;;;8.40;3.95;;;8.80;84.40;;;;;;5064550;28;20219;-71
2021/04/25 00:10:33;;;;;;;6.50;4.32;;;8.80;85.20;;;;;;5059851;28;20583;-71
2021/04/25 00:12:59;;;;;;;5.45;3.63;;;8.70;85.30;;;;;;5064150;28;20192;-71
2021/04/25 00:15:27;;;;;;;4.65;4.05;;;8.70;85.40;;;;;;5063094;28;20634;-71
2021/04/25 00:17:54;;;;;;;7.88;4.28;;;8.70;85.90;;;;;;5062553;28;20684;-71
2021/04/25 00:20:22;;;;;;;5.50;4.28;;;8.70;86.00;;;;;;5064840;28;20716;-71
2021/04/25 00:22:49;;;;;;;4.88;4.10;;;8.70;85.80;;;;;;5062871;28;20227;-73
2021/04/25 00:25:20;;;;;;;6.32;4.40;;;8.60;86.10;;;;;;5065331;28;20197;-73
2021/04/25 00:27:47;;;;;;;9.00;4.50;;;8.50;86.50;;;;;;5062628;28;20207;-73
2021/04/25 00:30:16;;;;;;;7.88;4.85;;;8.50;86.70;;;;;;5060652;28;20224;-71
2021/04/25 00:32:42;;;;;;;8.27;4.70;;;8.40;86.90;;;;;;5064600;28;20600;-71
2021/04/25 00:37:38;;;;;;;5.38;4.22;;;8.40;86.90;;;;;;5046505;28;20225;-72
2021/04/25 00:40:06;;;;;;;5.82;4.20;;;8.40;87.00;;;;;;5043494;28;20225;-72
2021/04/25 00:42:32;;;;;;;4.93;4.28;;;8.40;87.40;;;;;;5050314;28;20342;-73
2021/04/25 00:45:01;;;;;;;5.22;4.10;;;8.40;87.60;;;;;;5057887;28;20203;-73
2021/04/25 00:47:27;;;;;;;5.38;4.18;;;8.40;87.80;;;;;;5049771;28;20205;-70
2021/04/25 00:49:53;;;;;;;5.72;4.00;;;8.30;88.10;;;;;;5044480;28;20224;-71
2021/04/25 00:52:20;;;;;;;6.15;3.72;;;8.30;88.20;;;;;;5047503;28;20194;-71
2021/04/25 00:54:48;;;;;;;8.05;4.45;;;8.20;88.10;;;;;;5048160;28;20231;-71
2021/04/25 00:57:15;;;;;;;6.63;4.47;;;8.20;88.10;;;;;;5049904;28;20200;-71
2021/04/25 00:59:43;;;;;;;6.30;4.22;;;8.20;88.50;;;;;;5050500;28;20244;-72
2021/04/25 01:02:10;;;;;;;5.18;4.35;;;8.10;88.90;;;;;;5046255;28;20198;-72
2021/04/25 01:04:36;;;;;;;6.43;3.58;;;8.10;88.80;;;;;;5060900;28;20205;-71
2021/04/25 01:07:04;;;;;;;8.02;4.60;;;8.00;89.30;;;;;;5049637;28;20205;-72
2021/04/25 01:09:30;;;;;;;5.45;3.50;;;8.00;89.10;;;;;;5052727;28;20963;-72
2021/04/25 01:11:57;;;;;;;8.23;3.83;;;7.90;89.20;;;;;;5052871;28;20293;-71
2021/04/25 01:14:24;;;;;;;5.90;4.40;;;7.90;89.20;;;;;;5074450;28;20185;-70
2021/04/25 01:16:50;;;;;;;7.32;4.47;;;7.90;89.30;;;;;;5073547;28;20181;-71
2021/04/25 01:19:17;;;;;;;7.90;4.90;;;7.90;89.60;;;;;;5061920;28;20232;-71
2021/04/25 01:21:44;;;;;;;6.25;3.88;;;7.80;89.80;;;;;;5055163;28;20204;-71
2021/04/25 01:24:10;;;;;;;4.95;4.28;;;7.80;90.00;;;;;;5059188;28;20278;-72
2021/04/25 01:26:37;;;;;;;5.30;4.20;;;7.80;90.10;;;;;;5046741;28;20227;-71
2021/04/25 01:29:03;;;;;;;6.88;3.92;;;7.80;90.20;;;;;;5048344;28;20225;-72
2021/04/25 01:31:30;;;;;;;9.43;4.38;;;7.70;90.40;;;;;;5051693;28;20201;-71
2021/04/25 01:33:56;;;;;;;6.95;3.75;;;7.70;90.30;;;;;;5047284;28;20563;-71
2021/04/25 01:36:22;;;;;;;7.38;3.75;;;7.60;90.30;;;;;;5047407;28;20212;-71
2021/04/25 01:38:49;;;;;;;5.97;4.15;;;7.50;90.70;;;;;;5047732;28;20224;-71
2021/04/25 01:41:16;;;;;;;6.85;3.70;;;7.50;90.90;;;;;;5046597;28;20262;-72
2021/04/25 01:43:42;;;;;;;5.63;3.75;;;7.40;91.10;;;;;;5045944;28;20232;-71
2021/04/25 01:46:09;;;;;;;11.85;4.30;;;7.40;91.20;;;;;;5045048;28;20197;-72
2021/04/25 01:48:35;;;;;;;4.95;4.05;;;7.30;91.10;;;;;;5040296;28;20225;-72
2021/04/25 01:51:01;;;;;;;11.20;5.15;;;7.20;91.50;;;;;;5047146;28;20649;-72
2021/04/25 01:53:27;;;;;;;7.22;5.20;;;7.20;91.40;;;;;;5049754;28;20246;-72
2021/04/25 01:55:54;;;;;;;6.32;3.88;;;7.10;91.40;;;;;;5053688;28;20242;-72
2021/04/25 01:58:20;;;;;;;6.25;4.18;;;7.10;91.50;;;;;;5043890;28;20204;-72
2021/04/25 02:00:47;;;;;;;7.68;5.03;;;7.20;91.70;;;;;;5038247;28;20203;-72
2021/04/25 02:03:15;;;;;;;8.48;3.80;;;7.20;91.70;;;;;;5046433;28;20217;-72
2021/04/25 02:05:42;;;;;;;6.45;4.32;;;7.20;91.80;;;;;;5048441;28;20286;-72
2021/04/25 02:08:10;;;;;;;6.47;4.13;;;7.20;91.70;;;;;;5046125;28;20197;-72
2021/04/25 02:10:38;;;;;;;6.13;4.22;;;7.20;91.70;;;;;;5046966;28;20197;-71
2021/04/25 02:13:06;;;;;;;6.72;4.57;;;7.10;91.70;;;;;;5051663;28;20914;-72
2021/04/25 02:15:33;;;;;;;7.32;4.57;;;7.10;91.90;;;;;;5050135;28;20268;-72
2021/04/25 02:17:59;;;;;;;6.10;4.28;;;7.00;92.00;;;;;;5047836;28;20205;-71
2021/04/25 02:20:26;;;;;;;4.75;4.00;;;7.00;91.90;;;;;;5045986;28;20221;-72
2021/04/25 02:22:53;;;;;;;11.65;4.22;;;7.00;92.10;;;;;;5050318;28;21038;-71
2021/04/25 02:25:20;;;;;;;6.07;4.50;;;7.00;92.30;;;;;;5052438;28;20204;-72
2021/04/25 02:27:46;;;;;;;6.22;4.75;;;7.00;92.40;;;;;;5049444;28;20763;-72
2021/04/25 02:30:17;;;;;;;5.70;5.07;;;6.90;92.30;;;;;;5045917;28;20223;-71
2021/04/25 02:32:43;;;;;;;4.93;4.25;;;6.80;92.60;;;;;;5051755;28;20200;-71
2021/04/25 02:35:11;;;;;;;6.20;4.57;;;6.80;92.70;;;;;;5049029;28;20196;-72
2021/04/25 02:37:39;;;;;;;6.15;4.43;;;6.70;92.80;;;;;;5057687;28;20208;-71
2021/04/25 02:40:06;;;;;;;5.80;4.80;;;6.70;92.90;;;;;;5048966;28;20271;-71
2021/04/25 02:42:32;;;;;;;6.55;4.38;;;6.70;93.10;;;;;;5050370;28;20205;-72
2021/04/25 02:44:59;;;;;;;5.53;4.10;;;6.60;93.10;;;;;;5054687;28;20197;-72
2021/04/25 02:47:26;;;;;;;6.07;4.57;;;6.60;93.10;;;;;;5053792;28;20204;-72
2021/04/25 02:49:52;;;;;;;4.65;4.10;;;6.60;93.40;;;;;;5043886;28;20221;-72
2021/04/25 02:52:19;;;;;;;6.63;4.40;;;6.50;93.70;;;;;;5048076;28;20205;-72
2021/04/25 02:54:45;;;;;;;7.68;4.90;;;6.50;93.80;;;;;;5048126;28;20201;-72
2021/04/25 02:57:11;;;;;;;6.50;4.28;;;6.40;94.00;;;;;;5048399;28;20205;-72
2021/04/25 02:59:37;;;;;;;6.35;4.35;;;6.40;94.00;;;;;;5047700;28;20225;-72
2021/04/25 03:02:03;;;;;;;5.43;4.93;;;6.30;94.30;;;;;;5051832;28;20209;-72
2021/04/25 03:04:30;;;;;;;5.47;4.45;;;6.20;94.70;;;;;;5045938;28;20221;-72
2021/04/25 03:06:57;;;;;;;5.03;4.00;;;6.20;94.90;;;;;;5048542;28;20197;-72
2021/04/25 03:09:23;;;;;;;6.82;4.95;;;6.10;95.50;;;;;;5051147;28;20305;-71
2021/04/25 03:11:49;;;;;;;9.85;4.70;;;6.00;95.50;;;;;;5059952;28;20746;-71
2021/04/25 03:14:15;;;;;;;6.10;4.30;;;5.90;95.70;;;;;;5047740;28;20193;-71
2021/04/25 03:16:41;;;;;;;7.13;4.45;;;5.80;96.00;;;;;;5054844;28;20215;-71
2021/04/25 03:19:08;;;;;;;5.93;4.70;;;5.70;96.00;;;;;;5044356;28;20216;-71
2021/04/25 03:21:35;;;;;;;7.55;4.15;;;5.60;96.10;;;;;;5048750;28;20205;-71
2021/04/25 03:24:01;;;;;;;6.18;4.55;;;5.60;96.20;;;;;;5049210;28;20601;-72
2021/04/25 03:26:28;;;;;;;5.28;4.10;;;5.50;96.50;;;;;;5048064;28;20692;-72
2021/04/25 03:28:54;;;;;;;8.77;4.72;;;5.50;96.60;;;;;;5045197;28;20220;-71
2021/04/25 03:31:20;;;;;;;6.03;4.75;;;5.40;96.90;;;;;;5044262;28;20201;-72
2021/04/25 03:33:47;;;;;;;7.95;5.20;;;5.40;97.10;;;;;;5050404;28;20201;-71
2021/04/25 03:36:13;;;;;;;6.53;4.63;;;5.30;97.30;;;;;;5050248;28;20613;-71
2021/04/25 03:38:40;;;;;;;6.68;4.65;;;5.30;97.80;;;;;;5052905;28;20339;-71
2021/04/25 03:41:06;;;;;;;5.75;4.53;;;5.20;97.90;;;;;;5047921;28;20247;-72
2021/04/25 03:43:32;;;;;;;5.85;4.93;;;5.30;98.20;;;;;;5060071;28;20225;-72
2021/04/25 03:45:59;;;;;;;7.28;5.35;;;5.30;98.30;;;;;;5053285;28;21606;-70
2021/04/25 03:48:25;;;;;;;5.28;4.45;;;5.30;98.50;;;;;;5051251;28;20228;-71
2021/04/25 03:50:51;;;;;;;5.78;4.80;;;5.30;98.40;;;;;;5046228;28;20346;-72
2021/04/25 03:53:17;;;;;;;7.18;4.93;;;5.30;98.60;;;;;;5047582;28;20208;-71
2021/04/25 03:55:44;;;;;;;7.20;4.78;;;5.30;98.70;;;;;;5052966;28;20209;-71
2021/04/25 03:58:11;;;;;;;5.75;5.03;;;5.20;98.80;;;;;;5053450;28;20209;-71
2021/04/25 04:00:37;;;;;;;7.85;4.55;;;5.30;98.90;;;;;;5049456;28;20201;-71
2021/04/25 04:03:04;;;;;;;9.05;4.45;;;5.20;99.10;;;;;;5053024;28;20220;-72
2021/04/25 04:05:30;;;;;;;5.97;4.68;;;5.20;99.10;;;;;;5055398;28;20197;-71
2021/04/25 04:07:56;;;;;;;6.45;4.68;;;5.20;99.30;;;;;;5050072;28;20262;-71
2021/04/25 04:10:23;;;;;;;6.53;4.10;;;5.20;99.30;;;;;;5043688;28;20221;-72
2021/04/25 04:12:50;;;;;;;6.93;4.20;;;5.20;99.70;;;;;;5053630;28;20209;-72
2021/04/25 04:15:16;;;;;;;7.63;4.47;;;5.20;99.40;;;;;;5053454;28;20946;-71
2021/04/25 04:17:42;;;;;;;6.85;4.72;;;5.20;99.30;;;;;;5050204;28;20227;-72
2021/04/25 04:20:10;;;;;;;5.50;4.65;;;5.20;99.40;;;;;;5047535;28;20232;-71
2021/04/25 04:22:37;;;;;;;5.40;4.47;;;5.20;99.60;;;;;;5048393;28;20228;-71
2021/04/25 04:25:04;;;;;;;5.88;4.60;;;5.20;99.80;;;;;;5046480;28;20291;-72
2021/04/25 04:27:30;;;;;;;6.05;4.90;;;5.20;99.90;;;;;;5046165;28;20609;-71
2021/04/25 04:29:57;;;;;;;5.07;3.95;;;5.10;99.90;;;;;;5048439;28;20598;-72
2021/04/25 04:32:24;;;;;;;6.35;4.93;;;5.20;99.90;;;;;;5048426;28;20213;-71
2021/04/25 04:34:50;;;;;;;6.97;4.43;;;5.20;99.90;;;;;;5052255;28;20200;-71
2021/04/25 04:37:16;;;;;;;6.10;5.40;;;5.20;99.90;;;;;;5048617;28;20209;-72
2021/04/25 04:39:42;;;;;;;6.70;5.25;;;5.20;99.90;;;;;;5044452;28;20236;-71
2021/04/25 04:42:09;;;;;;;8.57;5.10;;;5.10;99.90;;;;;;5046574;28;20212;-72
2021/04/25 04:44:35;;;;;;;6.97;4.70;;;5.10;99.90;;;;;;5051055;28;20742;-71
2021/04/25 04:47:03;;;;;;;6.60;5.88;;;5.10;99.90;;;;;;5049219;28;20216;-71
2021/04/25 04:49:29;;;;;;;6.53;5.00;;;5.00;99.90;;;;;;5046457;28;20262;-71
2021/04/25 04:51:55;;;;;;;5.88;4.85;;;5.00;99.90;;;;;;5054481;28;20209;-71
2021/04/25 04:54:22;;;;;;;5.55;4.07;;;5.00;99.90;;;;;;5056464;28;20201;-71
2021/04/25 04:56:48;;;;;;;7.65;4.80;;;5.00;99.90;;;;;;5052286;28;20209;-71
2021/04/25 04:59:14;;;;;;;7.30;5.22;;;5.00;99.90;;;;;;5047371;28;20232;-72
2021/04/25 05:04:09;;;;;;;7.25;5.38;;;5.10;99.90;;;;;;5064744;28;20319;-74
2021/04/25 05:06:35;;;;;;;6.70;4.63;;;5.20;99.90;;;;;;5067699;28;20207;-75
2021/04/25 05:09:02;;;;;;;11.55;5.30;;;5.30;99.90;;;;;;5067550;28;20213;-75
2021/04/25 05:11:28;;;;;;;8.43;5.10;;;5.40;99.90;;;;;;5064104;28;20201;-74
2021/04/25 05:13:54;;;;;;;10.27;5.03;;;5.50;99.90;;;;;;5069194;28;20953;-74
2021/04/25 05:16:20;;;;;;;5.25;4.50;;;5.60;99.90;;;;;;5065123;28;20200;-72
2021/04/25 05:18:47;;;;;;;7.15;4.45;;;5.60;99.90;;;;;;5074556;28;20223;-73
2021/04/25 05:21:14;;;;;;;7.35;5.40;;;5.60;99.90;;;;;;5068695;28;20290;-74
2021/04/25 05:23:40;;;;;;;6.50;4.75;;;5.70;99.90;;;;;;5078856;28;20580;-74
2021/04/25 05:26:07;;;;;;;7.50;4.80;;;5.80;99.90;;;;;;5066318;28;20204;-75
2021/04/25 05:28:33;;;;;;;10.45;5.22;;;5.80;99.90;;;;;;5071396;28;20228;-74
2021/04/25 05:31:01;;;;;;;10.43;5.72;;;5.90;99.90;;;;;;5059182;28;20205;-75
2021/04/25 05:33:27;;;;;;;6.72;5.00;;;6.00;99.90;;;;;;5068037;28;20250;-74
2021/04/25 05:35:54;;;;;;;9.00;5.57;;;6.00;99.90;;;;;;5070367;28;20200;-73
2021/04/25 05:38:21;;;;;;;9.68;5.05;;;6.20;99.90;;;;;;5064991;28;20609;-73
2021/04/25 05:40:47;;;;;;;9.20;5.00;;;6.30;99.90;;;;;;5064653;28;20257;-73
2021/04/25 05:43:14;;;;;;;7.20;5.47;;;6.30;99.70;;;;;;5069502;28;20228;-73
2021/04/25 05:45:40;;;;;;;6.72;5.47;;;6.40;99.60;;;;;;5063243;28;20211;-74
2021/04/25 05:48:07;;;;;;;7.15;5.50;;;6.50;99.80;;;;;;5069003;28;20303;-74
2021/04/25 05:50:33;;;;;;;10.48;5.35;;;6.60;99.70;;;;;;5065406;28;20257;-74
2021/04/25 05:53:00;;;;;;;8.40;5.38;;;6.60;99.70;;;;;;5064325;28;20250;-74
2021/04/25 05:55:27;;;;;;;6.45;5.57;;;6.80;99.50;;;;;;5066089;28;20684;-74
2021/04/25 05:57:54;;;;;;;9.50;6.60;;;6.90;99.40;;;;;;5064855;28;20215;-73
2021/04/25 06:00:23;;;;;;;9.68;5.38;;;7.00;99.40;;;;;;5069773;28;20220;-73
2021/04/25 06:02:50;;;;;;;7.97;5.45;;;7.00;99.40;;;;;;5070813;28;20250;-73
2021/04/25 06:05:17;;;;;;;7.28;5.40;;;7.10;99.20;;;;;;5071291;28;20552;-74
2021/04/25 06:07:43;;;;;;;9.43;6.30;;;7.20;99.10;;;;;;5064748;28;20210;-73
2021/04/25 06:10:11;;;;;;;7.93;5.95;;;7.30;99.10;;;;;;5066024;28;20224;-74
2021/04/25 06:12:39;;;;;;;7.82;5.43;;;7.40;98.80;;;;;;5068132;28;20264;-73
2021/04/25 06:15:07;;;;;;;7.13;5.10;;;7.50;98.40;;;;;;5074250;28;20365;-72
2021/04/25 06:17:34;;;;;;;7.10;4.72;;;7.50;98.10;;;;;;5066719;28;20212;-73
2021/04/25 06:20:00;;;;;;;8.05;5.65;;;7.60;98.20;;;;;;5064176;28;20583;-73
2021/04/25 06:22:26;;;;;;;8.32;6.22;;;7.70;98.20;;;;;;5076137;28;20205;-73
2021/04/25 06:24:54;;;;;;;7.00;5.32;;;7.80;98.10;;;;;;5071140;28;20228;-74
2021/04/25 06:27:21;;;;;;;9.70;6.22;;;7.90;97.90;;;;;;5063644;28;20326;-72
2021/04/25 06:29:48;;;;;;;7.88;6.00;;;8.00;98.00;;;;;;5066765;28;20232;-71
2021/04/25 06:32:15;;;;;;;6.57;5.10;;;8.10;98.00;;;;;;5064313;28;20197;-71
2021/04/25 06:34:41;;;;;;;8.73;5.90;;;8.20;97.70;;;;;;5070319;28;20216;-71
2021/04/25 06:37:07;;;;;;;10.90;6.18;;;8.30;97.50;;;;;;5063352;28;20209;-74
2021/04/25 06:39:33;;;;;;;7.13;5.55;;;8.40;97.00;;;;;;5066476;28;20220;-73
2021/04/25 06:42:00;;;;;;;9.23;5.82;;;8.40;96.90;;;;;;5070048;28;20223;-73
2021/04/25 06:44:26;;;;;;;8.80;5.50;;;8.50;96.80;;;;;;5068646;28;20224;-74
2021/04/25 06:46:54;;;;;;;7.53;5.63;;;8.60;96.90;;;;;;5068525;28;20205;-74
2021/04/25 06:49:21;;;;;;;7.68;6.22;;;8.70;96.60;;;;;;5062049;28;20582;-73
2021/04/25 06:51:47;;;;;;;10.20;6.97;;;8.80;96.30;;;;;;5075059;28;20276;-72
2021/04/25 06:54:13;;;;;;;8.95;6.40;;;8.90;96.30;;;;;;5064817;28;20209;-73
2021/04/25 06:56:39;;;;;;;17.55;8.15;;;8.90;96.20;;;;;;5069037;28;20261;-73
2021/04/25 06:59:06;;;;;;;13.77;7.68;;;9.00;96.30;;;;;;5069076;28;20220;-73
2021/04/25 07:01:32;;;;;;;8.27;6.90;;;9.10;95.90;;;;;;5072525;28;20204;-73
2021/04/25 07:03:59;;;;;;;9.13;6.80;;;9.30;96.00;;;;;;5070588;28;20283;-72
2021/04/25 07:06:25;;;;;;;7.93;6.75;;;9.30;95.70;;;;;;5071456;28;20729;-73
2021/04/25 07:08:52;;;;;;;10.55;6.53;;;9.40;95.50;;;;;;5063516;28;20220;-72
2021/04/25 07:11:18;;;;;;;9.25;6.90;;;9.40;95.40;;;;;;5065238;28;20204;-74
2021/04/25 07:13:44;;;;;;;10.48;7.05;;;9.40;95.60;;;;;;5078450;28;20204;-73
2021/04/25 07:16:10;;;;;;;13.68;8.68;;;9.50;95.60;;;;;;5076460;28;20204;-73
2021/04/25 07:18:37;;;;;;;12.23;7.78;;;9.50;95.40;;;;;;5079150;28;20637;-73
2021/04/25 07:21:04;;;;;;;8.98;7.85;;;9.60;95.30;;;;;;5067853;28;20205;-71
2021/04/25 07:23:30;;;;;;;10.00;7.80;;;9.70;95.40;;;;;;5076025;28;20220;-71
2021/04/25 07:25:57;;;;;;;10.63;7.00;;;9.80;95.40;;;;;;5078038;28;20209;-72
2021/04/25 07:28:24;;;;;;;11.57;8.48;;;10.00;94.70;;;;;;5074086;28;20208;-73
2021/04/25 07:30:51;;;;;;;14.02;9.00;;;10.00;94.20;;;;;;5065603;28;20204;-71
2021/04/25 07:33:18;;;;;;;10.07;7.80;;;10.00;94.10;;;;;;5074698;28;20195;-71
2021/04/25 07:35:44;;;;;;;10.40;8.40;;;10.00;94.60;;;;;;5074293;28;20200;-73
2021/04/25 07:38:12;;;;;;;12.75;8.40;;;10.10;94.60;;;;;;5068929;28;20197;-72
2021/04/25 07:40:39;;;;;;;14.27;9.30;;;10.30;94.30;;;;;;5066511;28;20228;-73
2021/04/25 07:43:06;;;;;;;13.63;8.30;;;10.40;93.60;;;;;;5067397;28;20242;-71
2021/04/25 07:45:32;;;;;;;11.07;8.23;;;10.50;94.40;;;;;;5069218;28;20679;-73
2021/04/25 07:47:59;;;;;;;11.50;8.35;;;10.60;93.90;;;;;;5068516;28;20204;-73
2021/04/25 07:50:25;;;;;;;13.38;8.55;;;10.70;93.00;;;;;;5071275;28;20724;-73
2021/04/25 07:52:52;;;;;;;11.82;8.48;;;10.70;93.50;;;;;;5064188;28;20345;-72
2021/04/25 07:55:19;;;;;;;9.83;7.90;;;10.90;93.30;;;;;;5068375;28;20200;-71
2021/04/25 07:57:45;;;;;;;10.53;8.83;;;11.00;93.20;;;;;;5059702;28;20454;-72
2021/04/25 08:00:14;;;;;;;16.63;9.73;;;11.10;92.90;;;;;;5072709;28;20844;-72
2021/04/25 08:02:41;;;;;;;13.73;8.80;;;11.30;93.10;;;;;;5072902;28;20557;-72
2021/04/25 08:05:09;;;;;;;16.30;8.53;;;11.30;92.40;;;;;;5078500;28;20487;-71
2021/04/25 08:07:35;;;;;;;13.93;8.93;;;11.50;93.00;;;;;;5076973;28;20458;-72
2021/04/25 08:10:01;;;;;;;14.07;8.40;;;11.70;93.00;;;;;;5068130;28;20505;-72
2021/04/25 08:12:28;;;;;;;13.03;8.73;;;11.80;91.80;;;;;;5066149;28;20527;-72
2021/04/25 08:14:55;;;;;;;11.93;9.00;;;11.90;91.90;;;;;;5071098;28;20933;-73
2021/04/25 08:17:21;;;;;;;10.03;7.23;;;12.10;92.20;;;;;;5071496;28;20455;-73
2021/04/25 08:19:47;;;;;;;10.07;8.83;;;12.30;92.10;;;;;;5068290;28;20482;-71
2021/04/25 08:22:13;;;;;;;10.97;8.70;;;12.60;91.60;;;;;;5068197;28;20467;-72
2021/04/25 08:24:39;;;;;;;10.43;8.30;;;12.90;91.50;;;;;;5067586;28;20493;-72
2021/04/25 08:27:07;;;;;;;16.63;9.50;;;13.10;90.90;;;;;;5067129;28;20508;-71
2021/04/25 08:29:34;;;;;;;11.40;8.60;;;13.40;89.50;;;;;;5065377;28;20482;-72
2021/04/25 08:32:00;;;;;;;12.27;8.50;;;13.60;89.70;;;;;;5062564;28;20496;-69
2021/04/25 08:34:26;;;;;;;12.07;8.77;;;13.90;88.90;;;;;;5064871;28;20458;-69
2021/04/25 08:36:52;;;;;;;14.10;9.00;;;14.10;85.70;;;;;;5064436;28;20462;-72
2021/04/25 08:39:19;;;;;;;11.70;9.10;;;14.30;87.10;;;;;;5065694;28;20482;-71
2021/04/25 08:41:46;;;;;;;11.53;8.93;;;14.60;85.90;;;;;;5064025;28;20488;-73
2021/04/25 08:44:17;;;;;;;16.60;9.13;;;15.10;84.70;;;;;;5071818;28;20506;-73
2021/04/25 08:46:46;;;;;;;11.13;8.83;;;15.40;84.70;;;;;;5076963;28;21007;-71
2021/04/25 08:49:15;;;;;;;11.00;8.57;;;15.90;82.90;;;;;;5064034;28;20486;-73
2021/04/25 08:51:41;;;;;;;15.47;9.13;;;16.10;80.70;;;;;;5061763;28;20459;-74
2021/04/25 08:54:08;;;;;;;13.10;8.87;;;16.20;79.70;;;;;;5065526;28;20449;-72
2021/04/25 08:56:35;;;;;;;13.10;9.93;;;16.60;79.90;;;;;;5066086;28;20461;-71
2021/04/25 08:59:02;;;;;;;10.07;8.07;;;17.00;78.30;;;;;;5065859;28;20486;-69
2021/04/25 09:01:28;;;;;;;12.93;8.40;;;16.90;79.40;;;;;;5072229;28;20546;-69
2021/04/25 09:03:55;;;;;;;12.93;8.87;;;17.10;81.80;;;;;;5065531;28;21313;-69
2021/04/25 09:06:21;;;;;;;12.83;9.80;;;17.50;76.60;;;;;;5075800;28;20458;-72
2021/04/25 09:08:51;;;;;;;10.80;9.70;;;17.70;78.00;;;;;;5065189;28;20573;-71
2021/04/25 09:11:28;;;;;;;11.93;10.03;;;18.10;78.30;;;;;;5069016;28;20467;-72
2021/04/25 09:14:18;;;;;;;11.10;8.03;;;18.20;74.90;;;;;;5067556;28;20503;-71
2021/04/25 09:16:46;;;;;;;8.73;7.83;;;18.80;75.30;;;;;;5066262;28;20465;-71
2021/04/25 09:19:14;;;;;;;10.83;9.17;;;19.20;73.20;;;;;;5064069;28;20543;-73
2021/04/25 09:21:54;;;;;;;11.80;8.83;;;19.40;73.20;;;;;;5072070;28;20450;-73
2021/04/25 09:24:22;;;;;;;12.37;8.70;;;20.00;73.40;;;;;;5064310;28;20474;-70
2021/04/25 09:26:50;;;;;;;10.37;8.77;;;20.20;71.10;;;;;;5081178;28;20465;-69
2021/04/25 09:29:16;;;;;;;10.40;8.80;;;20.20;69.40;;;;;;5066169;28;20573;-69
2021/04/25 09:31:43;;;;;;;13.30;9.10;;;20.30;69.10;;;;;;5066624;28;20459;-69
2021/04/25 09:34:09;;;;;;;11.67;8.83;;;20.30;70.90;;;;;;5068512;28;20457;-71
2021/04/25 09:36:38;;;;;;;10.73;8.53;;;20.30;69.10;;;;;;5065335;28;20504;-72
2021/04/25 09:39:13;;;;;;;10.50;9.17;;;20.30;70.40;;;;;;5069611;28;21029;-74
2021/04/25 09:41:39;;;;;;;9.43;7.90;;;20.50;69.30;;;;;;5069750;28;20464;-73
2021/04/25 09:44:06;;;;;;;11.70;9.10;;;20.80;67.80;;;;;;5072190;28;20528;-72
2021/04/25 09:46:52;;;;;;;11.53;8.70;;;20.90;64.60;;;;;;5079726;28;20461;-74
2021/04/25 09:49:44;;;;;;;9.83;7.83;;;21.20;64.00;;;;;;5072036;28;20482;-72
2021/04/25 09:52:13;;;;;;;9.00;8.07;;;21.10;67.40;;;;;;5064124;28;20470;-72
2021/04/25 09:54:41;;;;;;;9.23;7.70;;;21.00;64.20;;;;;;5072334;28;20454;-73
2021/04/25 09:57:08;;;;;;;9.50;7.80;;;21.40;66.10;;;;;;5072963;28;20844;-71
2021/04/25 09:59:51;;;;;;;12.33;8.20;;;21.40;65.80;;;;;;5069929;28;20524;-73
2021/04/25 10:02:17;;;;;;;9.93;8.57;;;21.90;65.20;;;;;;5066176;28;20541;-69
2021/04/25 10:04:43;;;;;;;12.70;8.53;;;22.30;64.60;;;;;;5073154;28;20487;-69
2021/04/25 10:07:12;;;;;;;10.17;7.77;;;22.30;64.20;;;;;;5063614;28;21966;-70
2021/04/25 10:09:38;;;;;;;8.77;7.87;;;22.10;65.90;;;;;;5065060;28;20569;-68
2021/04/25 10:12:05;;;;;;;8.07;7.27;;;22.60;63.90;;;;;;5069373;28;20535;-69
2021/04/25 10:14:34;;;;;;;9.17;6.60;;;22.90;62.10;;;;;;5066878;28;20839;-69
2021/04/25 10:17:02;;;;;;;7.43;6.53;;;23.60;61.30;;;;;;5068272;28;20472;-68
2021/04/25 10:19:29;;;;;;;8.83;6.80;;;24.00;61.90;;;;;;5063688;28;20484;-72
2021/04/25 10:21:56;;;;;;;8.70;7.43;;;24.10;59.70;;;;;;5072556;28;20827;-74
2021/04/25 10:24:23;;;;;;;7.03;6.33;;;24.20;58.30;;;;;;5080235;28;20511;-72
2021/04/25 10:26:57;;;;;;;8.63;6.70;;;24.30;59.60;;;;;;5075000;28;20528;-72
2021/04/25 10:29:27;;;;;;;8.20;6.00;;;24.50;59.60;;;;;;5062151;28;20489;-70
2021/04/25 10:32:03;;;;;;;6.93;6.23;;;24.70;59.00;;;;;;5059736;28;20454;-70
2021/04/25 10:34:30;;;;;;;6.27;5.67;;;24.30;59.70;;;;;;5061194;28;20499;-72
2021/04/25 10:37:02;;;;;;;7.73;6.63;;;24.50;58.60;;;;;;5069476;28;20480;-70
2021/04/25 10:39:38;;;;;;;7.47;6.20;;;24.30;57.10;;;;;;5068168;28;20493;-71
2021/04/25 10:42:28;;;;;;;8.57;7.20;;;24.20;58.40;;;;;;5069056;28;20457;-70
2021/04/25 10:45:17;;;;;;;7.57;6.70;;;24.00;58.10;;;;;;5069260;28;21092;-70
2021/04/25 10:47:46;;;;;;;9.63;7.10;;;23.70;60.00;;;;;;5062218;28;20454;-72
2021/04/25 10:50:44;;;;;;;5.80;5.20;;;23.40;58.10;;;;;;5067631;28;20474;-71
2021/04/25 10:53:28;;;;;;;11.03;7.07;;;23.60;57.60;;;;;;5069906;28;20997;-70
2021/04/25 10:56:30;;;;;;;8.73;6.33;;;23.90;56.90;;;;;;5069257;28;20462;-71
2021/04/25 10:59:25;;;;;;;9.27;6.57;;;23.70;58.30;;;;;;5069289;28;20853;-71
2021/04/25 11:01:51;;;;;;;7.60;6.07;;;23.80;56.70;;;;;;5062330;28;20892;-72
2021/04/25 11:04:51;;;;;;;6.50;5.90;;;23.70;58.20;;;;;;5122699;22;20491;-68
2021/04/25 11:07:43;;;;;;;8.67;7.73;;;24.10;59.00;;;;;;5044247;28;20456;-70
2021/04/25 11:10:10;;;;;;;6.70;5.87;;;24.10;56.70;;;;;;5047259;28;20479;-70
2021/04/25 11:12:38;;;;;;;6.50;5.90;;;24.50;57.50;;;;;;5048452;28;20459;-68
2021/04/25 11:15:07;;;;;;;6.83;6.03;;;24.60;56.30;;;;;;5049015;28;20448;-69
2021/04/25 11:17:33;;;;;;;6.53;5.83;;;24.60;56.70;;;;;;5047324;28;20463;-68
2021/04/25 11:20:00;;;;;;;9.93;6.10;;;24.90;57.70;;;;;;5045684;28;21005;-68
2021/04/25 11:22:42;;;;;;;6.70;5.77;;;25.00;56.30;;;;;;5047807;28;20493;-68
2021/04/25 11:25:32;;;;;;;7.20;6.23;;;25.10;56.00;;;;;;5048208;28;20492;-67
2021/04/25 11:27:59;;;;;;;6.53;5.93;;;25.20;56.40;;;;;;5047670;28;20512;-69
2021/04/25 11:30:40;;;;;;;8.40;6.33;;;25.30;54.40;;;;;;5045604;28;20824;-69
2021/04/25 11:33:32;;;;;;;9.80;6.30;;;25.20;56.30;;;;;;5038237;28;20609;-69
2021/04/25 11:36:36;;;;;;;9.50;5.97;;;25.20;55.10;;;;;;5047059;28;20459;-68
2021/04/25 11:39:04;;;;;;;9.03;6.43;;;25.40;55.60;;;;;;5036585;28;20855;-68
2021/04/25 11:41:31;;;;;;;5.77;5.13;;;25.40;56.10;;;;;;5037110;28;20463;-69
2021/04/25 11:43:57;;;;;;;7.30;5.70;;;25.20;54.50;;;;;;5047704;28;20533;-68
2021/04/25 11:46:31;;;;;;;5.80;5.30;;;25.30;57.10;;;;;;5047735;28;20468;-68
2021/04/25 11:48:59;;;;;;;8.20;5.33;;;25.60;54.50;;;;;;5047051;28;20486;-69
2021/04/25 11:51:25;;;;;;;8.83;5.33;;;25.70;55.10;;;;;;5047712;28;20461;-69
2021/04/25 11:53:51;;;;;;;5.87;4.87;;;25.70;55.10;;;;;;5048407;28;20831;-70
2021/04/25 11:56:26;;;;;;;5.67;5.17;;;25.30;54.40;;;;;;5048398;28;20462;-69
2021/04/25 11:59:04;;;;;;;6.90;5.80;;;25.80;53.20;;;;;;5047704;28;20478;-69
2021/04/25 12:01:31;;;;;;;5.23;4.50;;;26.10;52.20;;;;;;5047201;28;20455;-68
2021/04/25 12:03:57;;;;;;;5.47;4.77;;;26.20;52.10;;;;;;5047712;28;20489;-69
2021/04/25 12:06:23;;;;;;;7.20;4.57;;;26.20;53.00;;;;;;5048268;28;20456;-68
2021/04/25 12:08:54;;;;;;;6.40;4.50;;;26.50;53.90;;;;;;5046895;28;20487;-68
2021/04/25 12:11:25;;;;;;;5.07;4.07;;;26.40;51.90;;;;;;5046445;28;20471;-69
2021/04/25 12:13:52;;;;;;;5.23;4.10;;;26.60;52.50;;;;;;5047810;28;20492;-67
2021/04/25 12:16:19;;;;;;;6.00;4.00;;;26.70;53.90;;;;;;5047362;28;20468;-69
2021/04/25 12:18:47;;;;;;;5.23;4.10;;;26.80;49.70;;;;;;5046123;28;20492;-68
2021/04/25 12:21:18;;;;;;;7.00;4.37;;;26.60;47.80;;;;;;5046757;28;20470;-70
2021/04/25 12:23:48;;;;;;;5.87;4.37;;;26.50;49.30;;;;;;5047437;28;21197;-70
2021/04/25 12:26:16;;;;;;;4.30;3.90;;;26.30;49.60;;;;;;5047923;28;20968;-69
2021/04/25 12:28:43;;;;;;;4.70;4.23;;;26.10;50.40;;;;;;5046047;28;20492;-69
2021/04/25 12:31:10;;;;;;;4.00;3.63;;;25.80;49.50;;;;;;5045608;28;20533;-69
2021/04/25 12:33:38;;;;;;;6.27;4.40;;;25.90;50.00;;;;;;5047395;28;21426;-69
2021/04/25 12:36:07;;;;;;;7.40;4.10;;;25.60;51.00;;;;;;5047342;28;20529;-69
2021/04/25 12:38:36;;;;;;;4.30;3.70;;;26.10;51.40;;;;;;5047660;28;20480;-70
2021/04/25 12:41:04;;;;;;;5.53;3.80;;;26.30;50.10;;;;;;5046034;28;20529;-70
2021/04/25 12:43:32;;;;;;;4.30;3.57;;;25.90;49.60;;;;;;5047681;28;20522;-70
2021/04/25 12:46:01;;;;;;;4.37;3.97;;;25.60;50.50;;;;;;5048920;28;20474;-70
2021/04/25 12:48:36;;;;;;;4.80;4.00;;;25.50;47.90;;;;;;5046093;28;20996;-69
2021/04/25 12:51:25;;;;;;;4.77;4.00;;;25.60;49.10;;;;;;5046035;28;20943;-70
2021/04/25 12:54:09;;;;;;;4.97;4.47;;;25.80;48.80;;;;;;5038057;28;20482;-71
2021/04/25 12:56:44;;;;;;;4.07;3.67;;;26.00;48.60;;;;;;5047433;28;20811;-68
2021/04/25 12:59:14;;;;;;;4.30;3.97;;;26.00;49.10;;;;;;5044903;28;20484;-68
2021/04/25 13:01:47;;;;;;;5.23;3.87;;;25.70;49.00;;;;;;5043975;28;20500;-69